sensor_id;sensor_type;location;lat;lon;timestamp;temperature;humidity
5264;DHT22;2654;47.958;13.614;2022-07-29T00:01:50;21.10;99.90
5264;DHT22;2654;47.958;13.614;2022-07-29T00:04:19;21.10;99.90
5264;DHT22;2654;47.958;13.614;2022-07-29T00:06:46;20.90;1.00
5264;DHT22;2654;47.958;13.614;2022-07-29T00:09:13;20.80;1.00
5264;DHT22;2654;47.958;13.614;2022-07-29T00:11:41;20.70;99.90
5264;DHT22;2654;47.958;13.614;2022-07-29T00:14:08;20.70;44.20
5264;DHT22;2654;47.958;13.614;2022-07-29T00:16:37;20.70;2.90
5264;DHT22;2654;47.958;13.614;2022-07-29T00:19:04;20.60;83.10
5264;DHT22;2654;47.958;13.614;2022-07-29T00:21:32;20.70;37.00
5264;DHT22;2654;47.958;13.614;2022-07-29T00:23:59;20.90;95.60
5264;DHT22;2654;47.958;13.614;2022-07-29T00:26:26;21.10;1.00
5264;DHT22;2654;47.958;13.614;2022-07-29T00:28:57;21.20;1.00
5264;DHT22;2654;47.958;13.614;2022-07-29T00:31:25;21.20;99.90
5264;DHT22;2654;47.958;13.614;2022-07-29T00:33:54;21.30;31.80
5264;DHT22;2654;47.958;13.614;2022-07-29T00:36:21;21.40;99.90
5264;DHT22;2654;47.958;13.614;2022-07-29T00:38:48;21.50;1.00
5264;DHT22;2654;47.958;13.614;2022-07-29T00:41:16;21.60;99.90
5264;DHT22;2654;47.958;13.614;2022-07-29T00:43:43;21.50;1.00
5264;DHT22;2654;47.958;13.614;2022-07-29T00:46:11;21.20;1.00
5264;DHT22;2654;47.958;13.614;2022-07-29T00:48:38;21.10;99.90
5264;DHT22;2654;47.958;13.614;2022-07-29T00:51:07;20.90;99.90
5264;DHT22;2654;47.958;13.614;2022-07-29T00:53:36;20.70;1.00
5264;DHT22;2654;47.958;13.614;2022-07-29T00:56:04;20.80;1.00
5264;DHT22;2654;47.958;13.614;2022-07-29T00:58:31;21.00;99.90
5264;DHT22;2654;47.958;13.614;2022-07-29T01:00:58;21.10;99.90
5264;DHT22;2654;47.958;13.614;2022-07-29T01:03:26;21.20;13.20
5264;DHT22;2654;47.958;13.614;2022-07-29T01:05:53;21.30;1.00
5264;DHT22;2654;47.958;13.614;2022-07-29T01:08:23;21.40;99.90
5264;DHT22;2654;47.958;13.614;2022-07-29T01:10:51;21.40;1.00
5264;DHT22;2654;47.958;13.614;2022-07-29T01:13:19;21.40;1.00
5264;DHT22;2654;47.958;13.614;2022-07-29T01:15:51;21.40;1.00
5264;DHT22;2654;47.958;13.614;2022-07-29T01:18:24;21.50;99.90
5264;DHT22;2654;47.958;13.614;2022-07-29T01:21:15;21.60;99.90
5264;DHT22;2654;47.958;13.614;2022-07-29T01:23:57;21.50;1.00
5264;DHT22;2654;47.958;13.614;2022-07-29T01:26:43;21.30;1.00
5264;DHT22;2654;47.958;13.614;2022-07-29T01:29:18;20.90;1.00
5264;DHT22;2654;47.958;13.614;2022-07-29T01:31:53;20.80;99.90
5264;DHT22;2654;47.958;13.614;2022-07-29T01:34:25;20.40;99.90
5264;DHT22;2654;47.958;13.614;2022-07-29T01:37:01;20.40;99.90
5264;DHT22;2654;47.958;13.614;2022-07-29T01:39:33;20.60;1.00
5264;DHT22;2654;47.958;13.614;2022-07-29T01:42:08;20.60;1.00
5264;DHT22;2654;47.958;13.614;2022-07-29T01:44:45;20.70;1.00
5264;DHT22;2654;47.958;13.614;2022-07-29T01:47:17;20.60;1.00
5264;DHT22;2654;47.958;13.614;2022-07-29T01:49:48;20.60;1.00
5264;DHT22;2654;47.958;13.614;2022-07-29T01:52:21;20.50;99.90
5264;DHT22;2654;47.958;13.614;2022-07-29T01:54:55;20.60;99.90
5264;DHT22;2654;47.958;13.614;2022-07-29T01:57:27;20.80;99.90
5264;DHT22;2654;47.958;13.614;2022-07-29T01:59:58;21.00;1.00
5264;DHT22;2654;47.958;13.614;2022-07-29T02:02:28;21.10;99.90
5264;DHT22;2654;47.958;13.614;2022-07-29T02:04:56;21.10;10.10
5264;DHT22;2654;47.958;13.614;2022-07-29T02:07:25;20.90;99.90
5264;DHT22;2654;47.958;13.614;2022-07-29T02:09:56;20.80;99.90
5264;DHT22;2654;47.958;13.614;2022-07-29T02:12:24;20.70;99.90
5264;DHT22;2654;47.958;13.614;2022-07-29T02:14:53;20.70;99.90
5264;DHT22;2654;47.958;13.614;2022-07-29T02:17:25;20.60;99.90
5264;DHT22;2654;47.958;13.614;2022-07-29T02:19:56;20.60;99.90
5264;DHT22;2654;47.958;13.614;2022-07-29T02:22:25;20.70;99.90
5264;DHT22;2654;47.958;13.614;2022-07-29T02:24:53;20.70;99.90
5264;DHT22;2654;47.958;13.614;2022-07-29T02:27:23;20.70;99.90
5264;DHT22;2654;47.958;13.614;2022-07-29T02:29:53;20.80;99.90
5264;DHT22;2654;47.958;13.614;2022-07-29T02:32:24;20.70;99.90
5264;DHT22;2654;47.958;13.614;2022-07-29T02:34:53;20.60;99.90
5264;DHT22;2654;47.958;13.614;2022-07-29T02:37:21;20.50;99.90
5264;DHT22;2654;47.958;13.614;2022-07-29T02:39:52;20.50;99.90
5264;DHT22;2654;47.958;13.614;2022-07-29T02:42:23;20.40;99.90
5264;DHT22;2654;47.958;13.614;2022-07-29T02:44:51;20.40;1.00
5264;DHT22;2654;47.958;13.614;2022-07-29T02:47:20;20.30;1.00
5264;DHT22;2654;47.958;13.614;2022-07-29T02:49:55;20.30;1.00
5264;DHT22;2654;47.958;13.614;2022-07-29T02:52:26;20.30;1.00
5264;DHT22;2654;47.958;13.614;2022-07-29T02:54:58;20.30;1.00
5264;DHT22;2654;47.958;13.614;2022-07-29T02:57:32;20.30;1.00
5264;DHT22;2654;47.958;13.614;2022-07-29T03:00:04;20.20;1.00
5264;DHT22;2654;47.958;13.614;2022-07-29T03:02:35;20.20;1.00
5264;DHT22;2654;47.958;13.614;2022-07-29T03:05:07;20.30;1.00
5264;DHT22;2654;47.958;13.614;2022-07-29T03:07:36;20.30;1.00
5264;DHT22;2654;47.958;13.614;2022-07-29T03:10:07;20.40;1.00
5264;DHT22;2654;47.958;13.614;2022-07-29T03:12:35;20.30;1.00
5264;DHT22;2654;47.958;13.614;2022-07-29T03:15:03;20.20;1.00
5264;DHT22;2654;47.958;13.614;2022-07-29T03:17:31;20.20;1.00
5264;DHT22;2654;47.958;13.614;2022-07-29T03:19:59;20.30;1.00
5264;DHT22;2654;47.958;13.614;2022-07-29T03:22:29;20.40;99.90
5264;DHT22;2654;47.958;13.614;2022-07-29T03:24:57;20.50;99.90
5264;DHT22;2654;47.958;13.614;2022-07-29T03:27:24;20.70;99.90
5264;DHT22;2654;47.958;13.614;2022-07-29T03:29:51;20.80;99.90
5264;DHT22;2654;47.958;13.614;2022-07-29T03:32:18;20.80;99.90
5264;DHT22;2654;47.958;13.614;2022-07-29T03:34:45;20.80;99.90
5264;DHT22;2654;47.958;13.614;2022-07-29T03:37:13;20.80;99.90
5264;DHT22;2654;47.958;13.614;2022-07-29T03:39:42;20.80;99.90
5264;DHT22;2654;47.958;13.614;2022-07-29T03:42:12;20.70;58.80
5264;DHT22;2654;47.958;13.614;2022-07-29T03:44:41;20.60;99.90
5264;DHT22;2654;47.958;13.614;2022-07-29T03:47:11;20.20;1.00
5264;DHT22;2654;47.958;13.614;2022-07-29T03:49:41;19.80;1.00
5264;DHT22;2654;47.958;13.614;2022-07-29T03:52:09;19.80;1.00
5264;DHT22;2654;47.958;13.614;2022-07-29T03:54:36;19.80;1.00
5264;DHT22;2654;47.958;13.614;2022-07-29T03:57:06;19.70;1.00
5264;DHT22;2654;47.958;13.614;2022-07-29T03:59:34;19.50;1.00
5264;DHT22;2654;47.958;13.614;2022-07-29T04:02:03;19.50;1.00
5264;DHT22;2654;47.958;13.614;2022-07-29T04:04:32;19.60;1.00
5264;DHT22;2654;47.958;13.614;2022-07-29T04:07:00;19.60;1.00
5264;DHT22;2654;47.958;13.614;2022-07-29T04:09:27;19.50;1.00
5264;DHT22;2654;47.958;13.614;2022-07-29T04:11:55;19.50;1.00
5264;DHT22;2654;47.958;13.614;2022-07-29T04:14:23;19.50;1.00
5264;DHT22;2654;47.958;13.614;2022-07-29T04:16:51;19.70;1.00
5264;DHT22;2654;47.958;13.614;2022-07-29T04:19:18;19.90;1.00
5264;DHT22;2654;47.958;13.614;2022-07-29T04:21:45;20.10;1.00
5264;DHT22;2654;47.958;13.614;2022-07-29T04:24:13;20.20;1.00
5264;DHT22;2654;47.958;13.614;2022-07-29T04:26:40;20.20;1.00
5264;DHT22;2654;47.958;13.614;2022-07-29T04:29:07;20.30;1.00
5264;DHT22;2654;47.958;13.614;2022-07-29T04:31:36;20.20;1.00
5264;DHT22;2654;47.958;13.614;2022-07-29T04:34:03;20.30;1.00
5264;DHT22;2654;47.958;13.614;2022-07-29T04:36:30;20.50;1.00
5264;DHT22;2654;47.958;13.614;2022-07-29T04:38:58;20.60;1.00
5264;DHT22;2654;47.958;13.614;2022-07-29T04:41:27;20.60;1.00
5264;DHT22;2654;47.958;13.614;2022-07-29T04:43:54;20.70;99.90
5264;DHT22;2654;47.958;13.614;2022-07-29T04:46:21;20.70;99.90
5264;DHT22;2654;47.958;13.614;2022-07-29T04:48:50;20.40;1.00
5264;DHT22;2654;47.958;13.614;2022-07-29T04:51:17;20.40;1.00
5264;DHT22;2654;47.958;13.614;2022-07-29T04:53:44;20.40;1.00
5264;DHT22;2654;47.958;13.614;2022-07-29T04:56:12;20.60;1.00
5264;DHT22;2654;47.958;13.614;2022-07-29T04:58:39;20.60;1.00
5264;DHT22;2654;47.958;13.614;2022-07-29T05:01:06;20.60;1.00
5264;DHT22;2654;47.958;13.614;2022-07-29T05:03:33;20.40;1.00
5264;DHT22;2654;47.958;13.614;2022-07-29T05:06:02;20.10;1.00
5264;DHT22;2654;47.958;13.614;2022-07-29T05:08:30;20.30;1.00
5264;DHT22;2654;47.958;13.614;2022-07-29T05:10:57;20.20;1.00
5264;DHT22;2654;47.958;13.614;2022-07-29T05:13:24;20.30;1.00
5264;DHT22;2654;47.958;13.614;2022-07-29T05:15:52;20.40;1.00
5264;DHT22;2654;47.958;13.614;2022-07-29T05:18:19;20.40;1.00
5264;DHT22;2654;47.958;13.614;2022-07-29T05:20:46;20.40;1.00
5264;DHT22;2654;47.958;13.614;2022-07-29T05:23:15;20.60;1.00
5264;DHT22;2654;47.958;13.614;2022-07-29T05:25:42;20.70;1.00
5264;DHT22;2654;47.958;13.614;2022-07-29T05:28:10;20.70;1.00
5264;DHT22;2654;47.958;13.614;2022-07-29T05:30:38;20.70;1.00
5264;DHT22;2654;47.958;13.614;2022-07-29T05:33:05;20.80;1.00
5264;DHT22;2654;47.958;13.614;2022-07-29T05:35:33;21.00;1.00
5264;DHT22;2654;47.958;13.614;2022-07-29T05:38:03;21.10;1.00
5264;DHT22;2654;47.958;13.614;2022-07-29T05:40:31;21.10;99.90
5264;DHT22;2654;47.958;13.614;2022-07-29T05:42:59;20.90;99.90
5264;DHT22;2654;47.958;13.614;2022-07-29T05:45:27;21.10;99.90
5264;DHT22;2654;47.958;13.614;2022-07-29T05:47:54;20.90;99.90
5264;DHT22;2654;47.958;13.614;2022-07-29T05:50:21;20.60;41.90
5264;DHT22;2654;47.958;13.614;2022-07-29T05:52:48;20.40;99.90
5264;DHT22;2654;47.958;13.614;2022-07-29T05:55:16;20.50;99.90
5264;DHT22;2654;47.958;13.614;2022-07-29T05:57:45;20.40;99.90
5264;DHT22;2654;47.958;13.614;2022-07-29T06:00:12;20.50;99.90
5264;DHT22;2654;47.958;13.614;2022-07-29T06:02:40;20.70;1.00
5264;DHT22;2654;47.958;13.614;2022-07-29T06:05:07;20.70;99.90
5264;DHT22;2654;47.958;13.614;2022-07-29T06:07:34;20.80;99.90
5264;DHT22;2654;47.958;13.614;2022-07-29T06:10:02;21.00;99.90
5264;DHT22;2654;47.958;13.614;2022-07-29T06:12:29;21.10;99.90
5264;DHT22;2654;47.958;13.614;2022-07-29T06:14:58;21.20;99.90
5264;DHT22;2654;47.958;13.614;2022-07-29T06:17:25;21.40;99.90
5264;DHT22;2654;47.958;13.614;2022-07-29T06:19:53;21.40;99.90
5264;DHT22;2654;47.958;13.614;2022-07-29T06:22:20;21.60;99.90
5264;DHT22;2654;47.958;13.614;2022-07-29T06:24:47;21.70;99.90
5264;DHT22;2654;47.958;13.614;2022-07-29T06:27:15;21.50;99.90
5264;DHT22;2654;47.958;13.614;2022-07-29T06:29:43;21.60;99.90
5264;DHT22;2654;47.958;13.614;2022-07-29T06:32:11;21.70;99.90
5264;DHT22;2654;47.958;13.614;2022-07-29T06:34:39;22.10;99.90
5264;DHT22;2654;47.958;13.614;2022-07-29T06:37:06;22.10;99.90
5264;DHT22;2654;47.958;13.614;2022-07-29T06:39:34;22.20;99.90
5264;DHT22;2654;47.958;13.614;2022-07-29T06:42:03;22.20;99.90
5264;DHT22;2654;47.958;13.614;2022-07-29T06:44:31;22.10;99.90
5264;DHT22;2654;47.958;13.614;2022-07-29T06:46:59;22.00;99.90
5264;DHT22;2654;47.958;13.614;2022-07-29T06:49:28;22.10;99.90
5264;DHT22;2654;47.958;13.614;2022-07-29T06:51:55;22.20;99.90
5264;DHT22;2654;47.958;13.614;2022-07-29T06:54:23;22.30;99.90
5264;DHT22;2654;47.958;13.614;2022-07-29T06:56:50;22.20;99.90
5264;DHT22;2654;47.958;13.614;2022-07-29T06:59:17;22.20;99.90
5264;DHT22;2654;47.958;13.614;2022-07-29T07:01:44;22.30;99.90
5264;DHT22;2654;47.958;13.614;2022-07-29T07:04:12;22.20;99.90
5264;DHT22;2654;47.958;13.614;2022-07-29T07:06:41;22.10;99.90
5264;DHT22;2654;47.958;13.614;2022-07-29T07:09:08;21.90;99.90
5264;DHT22;2654;47.958;13.614;2022-07-29T07:11:36;21.80;99.90
5264;DHT22;2654;47.958;13.614;2022-07-29T07:14:03;22.10;99.90
5264;DHT22;2654;47.958;13.614;2022-07-29T07:16:30;22.20;99.90
5264;DHT22;2654;47.958;13.614;2022-07-29T07:18:58;22.20;99.90
5264;DHT22;2654;47.958;13.614;2022-07-29T07:21:25;22.00;99.90
5264;DHT22;2654;47.958;13.614;2022-07-29T07:23:54;22.10;99.90
5264;DHT22;2654;47.958;13.614;2022-07-29T07:26:21;22.20;99.90
5264;DHT22;2654;47.958;13.614;2022-07-29T07:28:48;22.50;99.90
5264;DHT22;2654;47.958;13.614;2022-07-29T07:31:16;22.60;99.90
5264;DHT22;2654;47.958;13.614;2022-07-29T07:33:43;22.60;99.90
5264;DHT22;2654;47.958;13.614;2022-07-29T07:36:10;22.60;99.90
5264;DHT22;2654;47.958;13.614;2022-07-29T07:38:38;22.60;99.90
5264;DHT22;2654;47.958;13.614;2022-07-29T07:41:06;22.60;99.90
5264;DHT22;2654;47.958;13.614;2022-07-29T07:43:34;22.80;99.90
5264;DHT22;2654;47.958;13.614;2022-07-29T07:46:01;22.80;99.90
5264;DHT22;2654;47.958;13.614;2022-07-29T07:48:28;22.80;99.90
5264;DHT22;2654;47.958;13.614;2022-07-29T07:50:56;22.90;99.90
5264;DHT22;2654;47.958;13.614;2022-07-29T07:53:23;23.10;99.90
5264;DHT22;2654;47.958;13.614;2022-07-29T07:55:50;23.20;99.90
5264;DHT22;2654;47.958;13.614;2022-07-29T07:58:19;23.30;99.90
5264;DHT22;2654;47.958;13.614;2022-07-29T08:00:46;23.30;99.90
5264;DHT22;2654;47.958;13.614;2022-07-29T08:03:14;23.30;99.90
5264;DHT22;2654;47.958;13.614;2022-07-29T08:05:41;23.50;99.90
5264;DHT22;2654;47.958;13.614;2022-07-29T08:08:08;23.60;99.90
5264;DHT22;2654;47.958;13.614;2022-07-29T08:10:35;23.70;99.90
5264;DHT22;2654;47.958;13.614;2022-07-29T08:13:25;23.60;99.90
5264;DHT22;2654;47.958;13.614;2022-07-29T08:15:56;23.10;99.90
5264;DHT22;2654;47.958;13.614;2022-07-29T08:18:28;22.60;99.90
5264;DHT22;2654;47.958;13.614;2022-07-29T08:20:55;22.60;99.90
5264;DHT22;2654;47.958;13.614;2022-07-29T08:23:23;22.70;1.00
5264;DHT22;2654;47.958;13.614;2022-07-29T08:25:52;22.30;99.90
5264;DHT22;2654;47.958;13.614;2022-07-29T08:28:19;22.30;1.00
5264;DHT22;2654;47.958;13.614;2022-07-29T08:30:48;22.50;1.00
5264;DHT22;2654;47.958;13.614;2022-07-29T08:33:15;22.40;99.90
5264;DHT22;2654;47.958;13.614;2022-07-29T08:35:43;22.10;1.00
5264;DHT22;2654;47.958;13.614;2022-07-29T08:38:11;22.10;1.00
5264;DHT22;2654;47.958;13.614;2022-07-29T08:40:38;22.50;99.90
5264;DHT22;2654;47.958;13.614;2022-07-29T08:43:06;22.60;1.00
5264;DHT22;2654;47.958;13.614;2022-07-29T08:45:42;22.60;1.00
5264;DHT22;2654;47.958;13.614;2022-07-29T08:48:11;22.80;30.30
5264;DHT22;2654;47.958;13.614;2022-07-29T08:50:39;22.80;1.00
5264;DHT22;2654;47.958;13.614;2022-07-29T08:53:11;22.70;99.90
5264;DHT22;2654;47.958;13.614;2022-07-29T08:55:39;23.00;1.00
5264;DHT22;2654;47.958;13.614;2022-07-29T08:58:07;23.20;99.90
5264;DHT22;2654;47.958;13.614;2022-07-29T09:00:37;23.20;99.90
5264;DHT22;2654;47.958;13.614;2022-07-29T09:03:08;23.60;99.90
5264;DHT22;2654;47.958;13.614;2022-07-29T09:05:38;23.70;99.90
5264;DHT22;2654;47.958;13.614;2022-07-29T09:08:08;23.50;99.90
5264;DHT22;2654;47.958;13.614;2022-07-29T09:10:36;24.00;99.90
5264;DHT22;2654;47.958;13.614;2022-07-29T09:13:04;24.60;99.90
5264;DHT22;2654;47.958;13.614;2022-07-29T09:15:31;24.70;99.90
5264;DHT22;2654;47.958;13.614;2022-07-29T09:17:58;24.60;99.90
5264;DHT22;2654;47.958;13.614;2022-07-29T09:20:26;24.60;99.90
5264;DHT22;2654;47.958;13.614;2022-07-29T09:23:14;24.90;99.90
5264;DHT22;2654;47.958;13.614;2022-07-29T09:25:42;25.00;99.90
5264;DHT22;2654;47.958;13.614;2022-07-29T09:28:10;24.70;99.90
5264;DHT22;2654;47.958;13.614;2022-07-29T09:30:50;24.70;99.90
5264;DHT22;2654;47.958;13.614;2022-07-29T09:33:18;24.70;99.90
5264;DHT22;2654;47.958;13.614;2022-07-29T09:35:45;24.70;99.90
5264;DHT22;2654;47.958;13.614;2022-07-29T09:38:14;25.00;99.90
5264;DHT22;2654;47.958;13.614;2022-07-29T09:40:41;25.10;99.90
5264;DHT22;2654;47.958;13.614;2022-07-29T09:43:22;25.00;99.90
5264;DHT22;2654;47.958;13.614;2022-07-29T09:45:49;25.10;99.90
5264;DHT22;2654;47.958;13.614;2022-07-29T09:48:19;25.20;99.90
5264;DHT22;2654;47.958;13.614;2022-07-29T09:50:46;25.30;99.90
5264;DHT22;2654;47.958;13.614;2022-07-29T09:53:32;25.60;99.90
5264;DHT22;2654;47.958;13.614;2022-07-29T09:56:00;25.80;99.90
5264;DHT22;2654;47.958;13.614;2022-07-29T09:58:28;26.20;99.90
5264;DHT22;2654;47.958;13.614;2022-07-29T10:00:55;26.50;99.90
5264;DHT22;2654;47.958;13.614;2022-07-29T10:03:23;26.60;99.90
5264;DHT22;2654;47.958;13.614;2022-07-29T10:06:05;26.40;98.60
5264;DHT22;2654;47.958;13.614;2022-07-29T10:08:34;26.60;98.10
5264;DHT22;2654;47.958;13.614;2022-07-29T10:11:12;26.90;98.40
5264;DHT22;2654;47.958;13.614;2022-07-29T10:13:41;27.20;99.90
5264;DHT22;2654;47.958;13.614;2022-07-29T10:16:08;27.30;99.80
5264;DHT22;2654;47.958;13.614;2022-07-29T10:18:38;27.60;99.60
5264;DHT22;2654;47.958;13.614;2022-07-29T10:21:06;28.00;98.20
5264;DHT22;2654;47.958;13.614;2022-07-29T10:23:35;28.00;98.50
5264;DHT22;2654;47.958;13.614;2022-07-29T10:26:03;27.90;98.20
5264;DHT22;2654;47.958;13.614;2022-07-29T10:28:31;27.60;98.40
5264;DHT22;2654;47.958;13.614;2022-07-29T10:31:01;27.30;98.40
5264;DHT22;2654;47.958;13.614;2022-07-29T10:33:45;27.50;99.80
5264;DHT22;2654;47.958;13.614;2022-07-29T10:36:24;27.30;98.40
5264;DHT22;2654;47.958;13.614;2022-07-29T10:39:02;27.20;99.90
5264;DHT22;2654;47.958;13.614;2022-07-29T10:42:01;27.10;99.80
5264;DHT22;2654;47.958;13.614;2022-07-29T10:44:32;26.90;99.40
5264;DHT22;2654;47.958;13.614;2022-07-29T10:47:00;26.90;99.90
5264;DHT22;2654;47.958;13.614;2022-07-29T10:49:27;27.40;99.90
5264;DHT22;2654;47.958;13.614;2022-07-29T10:52:03;27.70;99.90
5264;DHT22;2654;47.958;13.614;2022-07-29T10:54:43;27.80;99.30
5264;DHT22;2654;47.958;13.614;2022-07-29T10:57:21;27.70;99.20
5264;DHT22;2654;47.958;13.614;2022-07-29T11:02:44;28.20;99.50
5264;DHT22;2654;47.958;13.614;2022-07-29T11:05:15;28.50;99.40
5264;DHT22;2654;47.958;13.614;2022-07-29T11:08:17;27.90;99.90
5264;DHT22;2654;47.958;13.614;2022-07-29T11:10:47;27.80;99.90
5264;DHT22;2654;47.958;13.614;2022-07-29T11:13:45;27.60;99.90
5264;DHT22;2654;47.958;13.614;2022-07-29T11:16:14;27.70;99.90
5264;DHT22;2654;47.958;13.614;2022-07-29T11:21:39;27.90;99.90
5264;DHT22;2654;47.958;13.614;2022-07-29T11:24:13;28.00;99.70
5264;DHT22;2654;47.958;13.614;2022-07-29T11:26:42;28.10;99.40
5264;DHT22;2654;47.958;13.614;2022-07-29T11:29:19;28.50;98.60
5264;DHT22;2654;47.958;13.614;2022-07-29T11:31:50;28.40;98.20
5264;DHT22;2654;47.958;13.614;2022-07-29T11:34:24;28.40;97.60
5264;DHT22;2654;47.958;13.614;2022-07-29T11:37:18;28.30;95.50
5264;DHT22;2654;47.958;13.614;2022-07-29T11:39:47;28.00;97.00
5264;DHT22;2654;47.958;13.614;2022-07-29T11:42:43;28.20;97.20
5264;DHT22;2654;47.958;13.614;2022-07-29T11:45:14;28.80;96.00
5264;DHT22;2654;47.958;13.614;2022-07-29T11:47:47;29.10;95.40
5264;DHT22;2654;47.958;13.614;2022-07-29T11:50:17;29.50;94.00
5264;DHT22;2654;47.958;13.614;2022-07-29T11:52:46;30.00;95.10
5264;DHT22;2654;47.958;13.614;2022-07-29T11:55:16;30.10;92.80
5264;DHT22;2654;47.958;13.614;2022-07-29T11:57:50;30.40;92.70
5264;DHT22;2654;47.958;13.614;2022-07-29T12:00:23;30.70;92.50
5264;DHT22;2654;47.958;13.614;2022-07-29T12:02:51;30.20;89.90
5264;DHT22;2654;47.958;13.614;2022-07-29T12:05:19;29.70;83.60
5264;DHT22;2654;47.958;13.614;2022-07-29T12:07:47;29.60;89.40
5264;DHT22;2654;47.958;13.614;2022-07-29T12:10:14;29.90;89.60
5264;DHT22;2654;47.958;13.614;2022-07-29T12:12:42;30.20;91.10
5264;DHT22;2654;47.958;13.614;2022-07-29T12:15:17;30.50;89.90
5264;DHT22;2654;47.958;13.614;2022-07-29T12:17:46;30.60;88.70
5264;DHT22;2654;47.958;13.614;2022-07-29T12:20:22;30.40;89.90
5264;DHT22;2654;47.958;13.614;2022-07-29T12:22:50;30.20;91.10
5264;DHT22;2654;47.958;13.614;2022-07-29T12:25:19;30.40;91.20
5264;DHT22;2654;47.958;13.614;2022-07-29T12:27:56;30.10;89.10
5264;DHT22;2654;47.958;13.614;2022-07-29T12:30:38;30.20;89.50
5264;DHT22;2654;47.958;13.614;2022-07-29T12:33:21;30.60;86.50
5264;DHT22;2654;47.958;13.614;2022-07-29T12:35:51;30.90;86.10
5264;DHT22;2654;47.958;13.614;2022-07-29T12:38:21;30.70;85.20
5264;DHT22;2654;47.958;13.614;2022-07-29T12:40:49;30.70;84.70
5264;DHT22;2654;47.958;13.614;2022-07-29T12:43:19;31.20;83.50
5264;DHT22;2654;47.958;13.614;2022-07-29T12:45:50;31.30;77.30
5264;DHT22;2654;47.958;13.614;2022-07-29T12:48:33;31.50;74.50
5264;DHT22;2654;47.958;13.614;2022-07-29T12:51:01;31.60;69.20
5264;DHT22;2654;47.958;13.614;2022-07-29T12:53:29;31.80;71.00
5264;DHT22;2654;47.958;13.614;2022-07-29T12:55:57;32.00;71.50
5264;DHT22;2654;47.958;13.614;2022-07-29T12:58:28;32.00;71.50
5264;DHT22;2654;47.958;13.614;2022-07-29T13:01:06;32.20;68.50
5264;DHT22;2654;47.958;13.614;2022-07-29T13:03:53;32.40;68.00
5264;DHT22;2654;47.958;13.614;2022-07-29T13:06:39;32.40;65.10
5264;DHT22;2654;47.958;13.614;2022-07-29T13:09:09;32.40;68.20
5264;DHT22;2654;47.958;13.614;2022-07-29T13:11:39;32.40;62.40
5264;DHT22;2654;47.958;13.614;2022-07-29T13:14:08;32.50;62.00
5264;DHT22;2654;47.958;13.614;2022-07-29T13:17:02;32.40;59.80
5264;DHT22;2654;47.958;13.614;2022-07-29T13:19:35;32.20;60.90
5264;DHT22;2654;47.958;13.614;2022-07-29T13:22:03;32.10;63.00
5264;DHT22;2654;47.958;13.614;2022-07-29T13:24:30;32.10;60.90
5264;DHT22;2654;47.958;13.614;2022-07-29T13:26:58;32.00;62.70
5264;DHT22;2654;47.958;13.614;2022-07-29T13:29:26;32.10;62.20
5264;DHT22;2654;47.958;13.614;2022-07-29T13:31:53;31.90;64.70
5264;DHT22;2654;47.958;13.614;2022-07-29T13:34:22;31.00;64.70
5264;DHT22;2654;47.958;13.614;2022-07-29T13:36:50;29.80;67.90
5264;DHT22;2654;47.958;13.614;2022-07-29T13:39:17;29.60;67.70
5264;DHT22;2654;47.958;13.614;2022-07-29T13:41:44;30.20;68.60
5264;DHT22;2654;47.958;13.614;2022-07-29T13:44:12;30.10;67.50
5264;DHT22;2654;47.958;13.614;2022-07-29T13:46:39;30.30;70.50
5264;DHT22;2654;47.958;13.614;2022-07-29T13:49:06;30.90;64.40
5264;DHT22;2654;47.958;13.614;2022-07-29T13:51:35;30.30;61.10
5264;DHT22;2654;47.958;13.614;2022-07-29T13:54:02;29.50;62.10
5264;DHT22;2654;47.958;13.614;2022-07-29T13:56:29;29.10;61.50
5264;DHT22;2654;47.958;13.614;2022-07-29T13:58:57;29.40;63.20
5264;DHT22;2654;47.958;13.614;2022-07-29T14:01:24;29.30;63.00
5264;DHT22;2654;47.958;13.614;2022-07-29T14:03:52;29.50;64.80
5264;DHT22;2654;47.958;13.614;2022-07-29T14:06:20;30.00;65.30
5264;DHT22;2654;47.958;13.614;2022-07-29T14:08:48;30.60;65.20
5264;DHT22;2654;47.958;13.614;2022-07-29T14:11:15;31.10;60.90
5264;DHT22;2654;47.958;13.614;2022-07-29T14:13:43;31.50;62.30
5264;DHT22;2654;47.958;13.614;2022-07-29T14:16:10;32.10;61.80
5264;DHT22;2654;47.958;13.614;2022-07-29T14:18:37;32.50;57.80
5264;DHT22;2654;47.958;13.614;2022-07-29T14:21:04;33.00;56.70
5264;DHT22;2654;47.958;13.614;2022-07-29T14:23:32;33.20;54.10
5264;DHT22;2654;47.958;13.614;2022-07-29T14:26:01;33.40;52.90
5264;DHT22;2654;47.958;13.614;2022-07-29T14:28:28;32.90;51.40
5264;DHT22;2654;47.958;13.614;2022-07-29T14:30:55;31.60;54.20
5264;DHT22;2654;47.958;13.614;2022-07-29T14:33:22;31.40;53.70
5264;DHT22;2654;47.958;13.614;2022-07-29T14:35:50;31.10;52.40
5264;DHT22;2654;47.958;13.614;2022-07-29T14:38:17;30.80;52.60
5264;DHT22;2654;47.958;13.614;2022-07-29T14:40:44;31.40;55.20
5264;DHT22;2654;47.958;13.614;2022-07-29T14:43:13;31.70;51.10
5264;DHT22;2654;47.958;13.614;2022-07-29T14:45:41;31.90;51.80
5264;DHT22;2654;47.958;13.614;2022-07-29T14:48:08;32.50;51.30
5264;DHT22;2654;47.958;13.614;2022-07-29T14:50:37;32.80;52.10
5264;DHT22;2654;47.958;13.614;2022-07-29T14:53:04;33.10;51.90
5264;DHT22;2654;47.958;13.614;2022-07-29T14:55:31;32.30;49.60
5264;DHT22;2654;47.958;13.614;2022-07-29T14:57:59;32.40;48.00
5264;DHT22;2654;47.958;13.614;2022-07-29T15:00:27;32.10;47.30
5264;DHT22;2654;47.958;13.614;2022-07-29T15:02:57;32.30;49.10
5264;DHT22;2654;47.958;13.614;2022-07-29T15:05:25;31.20;47.00
5264;DHT22;2654;47.958;13.614;2022-07-29T15:07:52;31.20;48.10
5264;DHT22;2654;47.958;13.614;2022-07-29T15:10:21;31.80;47.30
5264;DHT22;2654;47.958;13.614;2022-07-29T15:12:48;32.50;51.10
5264;DHT22;2654;47.958;13.614;2022-07-29T15:15:15;33.00;47.90
5264;DHT22;2654;47.958;13.614;2022-07-29T15:17:44;33.20;46.20
5264;DHT22;2654;47.958;13.614;2022-07-29T15:20:11;33.50;46.50
5264;DHT22;2654;47.958;13.614;2022-07-29T15:22:39;33.60;46.30
5264;DHT22;2654;47.958;13.614;2022-07-29T15:25:08;33.60;47.50
5264;DHT22;2654;47.958;13.614;2022-07-29T15:27:35;33.80;46.60
5264;DHT22;2654;47.958;13.614;2022-07-29T15:30:03;34.20;46.10
5264;DHT22;2654;47.958;13.614;2022-07-29T15:32:30;34.60;45.50
5264;DHT22;2654;47.958;13.614;2022-07-29T15:34:59;34.70;46.90
5264;DHT22;2654;47.958;13.614;2022-07-29T15:37:26;34.90;45.60
5264;DHT22;2654;47.958;13.614;2022-07-29T15:39:54;34.80;44.60
5264;DHT22;2654;47.958;13.614;2022-07-29T15:42:21;34.00;43.90
5264;DHT22;2654;47.958;13.614;2022-07-29T15:44:48;33.80;45.00
5264;DHT22;2654;47.958;13.614;2022-07-29T15:47:15;34.10;44.00
5264;DHT22;2654;47.958;13.614;2022-07-29T15:49:43;33.70;45.90
5264;DHT22;2654;47.958;13.614;2022-07-29T15:52:11;33.00;52.20
5264;DHT22;2654;47.958;13.614;2022-07-29T15:54:39;33.00;52.80
5264;DHT22;2654;47.958;13.614;2022-07-29T15:57:07;32.70;53.10
5264;DHT22;2654;47.958;13.614;2022-07-29T15:59:34;33.50;52.60
5264;DHT22;2654;47.958;13.614;2022-07-29T16:02:02;34.90;49.90
5264;DHT22;2654;47.958;13.614;2022-07-29T16:04:30;35.60;49.70
5264;DHT22;2654;47.958;13.614;2022-07-29T16:06:57;35.50;48.80
5264;DHT22;2654;47.958;13.614;2022-07-29T16:09:26;34.40;48.50
5264;DHT22;2654;47.958;13.614;2022-07-29T16:11:54;34.00;48.90